Time;durP1;ratioP1;P1;durP2;ratioP2;P2;SDS_P1;SDS_P2;PMS_P1;PMS_P2;Temp;Humidity;BMP_temperature;BMP_pressure;BME280_temperature;BME280_humidity;BME280_pressure;Samples;Min_cycle;Max_cycle;Signal;HPM_P1;HPM_P2
2023/03/05 00:02:02;;;;;;;0.68;0.20;;;;;;;6.96;87.89;99404.91;5047380;28;20037;-78
2023/03/05 00:04:30;;;;;;;2.88;0.20;;;;;;;6.95;89.50;99398.91;5054185;28;20478;-78
2023/03/05 00:06:59;;;;;;;0.75;0.17;;;;;;;6.99;87.61;99405.00;5048446;28;20044;-77
2023/03/05 00:09:28;;;;;;;0.20;0.15;;;;;;;7.02;86.39;99400.78;5051445;28;20044;-78
2023/03/05 00:11:56;;;;;;;1.85;0.30;;;;;;;6.98;84.87;99405.81;5046795;28;20053;-76
2023/03/05 00:14:26;;;;;;;0.40;0.25;;;;;;;7.03;87.69;99402.53;5045498;28;20048;-80
2023/03/05 00:16:55;;;;;;;0.08;0.08;;;;;;;7.07;87.39;99398.31;5047383;27;20049;-76
2023/03/05 00:19:23;;;;;;;2.50;0.35;;;;;;;7.06;86.33;99407.72;5049658;28;20138;-77
2023/03/05 00:21:52;;;;;;;0.25;0.10;;;;;;;7.10;87.34;99398.38;5050488;28;20041;-79
2023/03/05 00:24:20;;;;;;;3.45;0.32;;;;;;;7.12;87.90;99400.16;5052317;28;20052;-78
2023/03/05 00:26:49;;;;;;;1.30;0.25;;;;;;;7.16;88.60;99397.66;5049900;28;20056;-75
2023/03/05 00:29:20;;;;;;;0.47;0.30;;;;;;;7.19;89.09;99400.28;5051340;28;20402;-73
2023/03/05 00:31:50;;;;;;;0.43;0.30;;;;;;;7.21;87.94;99404.59;5054940;28;20049;-75
2023/03/05 00:34:21;;;;;;;0.60;0.40;;;;;;;7.18;88.91;99394.25;5056472;28;20049;-78
2023/03/05 00:36:52;;;;;;;3.92;0.43;;;;;;;7.25;87.75;99403.84;5050901;28;20049;-77
2023/03/05 00:39:21;;;;;;;1.65;0.47;;;;;;;7.27;87.55;99402.19;5055056;28;20103;-76
2023/03/05 00:41:50;;;;;;;1.15;0.32;;;;;;;7.29;88.83;99405.66;5045991;28;20078;-75
2023/03/05 00:44:19;;;;;;;0.63;0.32;;;;;;;7.30;88.33;99404.81;5054854;28;20522;-80
2023/03/05 00:46:47;;;;;;;1.23;0.30;;;;;;;7.33;91.51;99412.59;5050352;28;20053;-76
2023/03/05 00:49:18;;;;;;;0.50;0.30;;;;;;;7.34;90.48;99411.75;5056628;28;20049;-82
2023/03/05 00:51:46;;;;;;;0.82;0.22;;;;;;;7.36;90.20;99421.22;5053606;28;20548;-77
2023/03/05 00:54:15;;;;;;;1.10;0.40;;;;;;;7.38;89.91;99419.56;5052677;28;20091;-77
2023/03/05 00:56:43;;;;;;;5.03;0.60;;;;;;;7.40;88.88;99431.63;5055913;28;20045;-79
2023/03/05 00:59:12;;;;;;;2.13;0.50;;;;;;;7.41;89.79;99435.06;5047423;28;20063;-79
2023/03/05 01:01:41;;;;;;;5.07;0.40;;;;;;;7.42;89.14;99441.91;5055981;28;20114;-75
2023/03/05 01:04:09;;;;;;;5.25;0.75;;;;;;;7.39;86.90;99444.44;5049611;28;20095;-74
2023/03/05 01:06:43;;;;;;;0.20;0.20;;;;;;;7.31;86.46;99450.31;5058033;28;20041;-76
2023/03/05 01:09:12;;;;;;;4.30;0.35;;;;;;;7.27;86.02;99455.34;5050500;28;20056;-77
2023/03/05 01:11:40;;;;;;;1.88;0.47;;;;;;;7.23;85.40;99444.09;5046602;28;20545;-74
2023/03/05 01:14:09;;;;;;;1.42;0.30;;;;;;;7.11;83.52;99456.72;5048794;28;20134;-80
2023/03/05 01:16:37;;;;;;;0.50;0.30;;;;;;;7.00;84.64;99460.75;5040046;28;20126;-76
2023/03/05 01:19:06;;;;;;;0.85;0.50;;;;;;;6.91;82.40;99463.97;5045997;28;20313;-78
2023/03/05 01:21:36;;;;;;;0.28;0.28;;;;;;;6.86;83.55;99466.41;5048763;28;20126;-74
2023/03/05 01:24:07;;;;;;;0.82;0.45;;;;;;;6.84;84.54;99467.22;5051774;28;20915;-80
2023/03/05 01:26:36;;;;;;;2.85;0.73;;;;;;;6.80;83.80;99471.41;5053226;28;20887;-75
2023/03/05 01:29:04;;;;;;;1.42;0.70;;;;;;;6.74;82.80;99460.13;5055700;28;20064;-76
2023/03/05 01:31:33;;;;;;;2.65;0.52;;;;;;;6.64;83.88;99459.03;5048219;28;20053;-76
2023/03/05 01:34:01;;;;;;;2.38;0.70;;;;;;;6.64;83.59;99474.44;5048768;28;20045;-76
2023/03/05 01:36:30;;;;;;;0.47;0.28;;;;;;;6.44;83.90;99472.25;5049957;28;20132;-78
2023/03/05 01:38:59;;;;;;;0.85;0.40;;;;;;;6.43;85.26;99469.63;5047300;28;20084;-78
2023/03/05 01:41:29;;;;;;;3.38;0.40;;;;;;;6.35;84.37;99469.47;5050966;28;20052;-77
2023/03/05 01:43:58;;;;;;;2.30;0.63;;;;;;;6.30;84.55;99476.19;5049836;28;20104;-79
2023/03/05 01:46:33;;;;;;;1.55;0.63;;;;;;;6.19;84.43;99483.59;5047077;28;20045;-78
2023/03/05 01:49:06;;;;;;;0.35;0.20;;;;;;;6.13;86.02;99491.13;5048419;28;20049;-77
2023/03/05 01:51:41;;;;;;;1.77;1.08;;;;;;;6.13;85.61;99490.25;5052172;28;20130;-78
2023/03/05 01:54:12;;;;;;;1.10;0.32;;;;;;;6.08;84.51;99493.56;5056304;28;20647;-78
2023/03/05 01:56:44;;;;;;;2.05;0.55;;;;;;;6.06;84.89;99494.34;5055686;28;20048;-78
2023/03/05 01:59:14;;;;;;;1.75;0.73;;;;;;;6.04;84.33;99494.31;5054510;28;20111;-77
2023/03/05 02:01:45;;;;;;;6.22;0.90;;;;;;;6.02;84.49;99503.66;5050387;28;20093;-76
2023/03/05 02:04:17;;;;;;;2.13;1.00;;;;;;;5.99;85.81;99508.72;5050498;28;20049;-78
2023/03/05 02:06:47;;;;;;;2.80;0.80;;;;;;;5.99;86.65;99508.72;5048989;28;20053;-78
2023/03/05 02:09:15;;;;;;;4.53;0.95;;;;;;;6.00;86.80;99513.06;5047307;28;20098;-75
2023/03/05 02:11:46;;;;;;;1.90;1.00;;;;;;;6.01;86.89;99516.47;5052786;28;20116;-80
2023/03/05 02:14:14;;;;;;;3.80;1.27;;;;;;;6.00;86.59;99527.56;5051024;28;20120;-78
2023/03/05 02:16:44;;;;;;;1.98;1.10;;;;;;;5.95;85.98;99530.00;5049027;27;20183;-77
2023/03/05 02:19:13;;;;;;;0.90;0.75;;;;;;;5.91;87.26;99541.00;5053043;28;20042;-77
2023/03/05 02:21:45;;;;;;;1.85;0.57;;;;;;;5.90;86.72;99546.94;5046177;28;20502;-78
2023/03/05 02:24:35;;;;;;;0.65;0.32;;;;;;;5.88;87.22;99552.03;5049055;28;20125;-76
2023/03/05 02:27:05;;;;;;;3.20;0.55;;;;;;;5.85;87.40;99554.50;5049391;28;20059;-78
2023/03/05 02:29:35;;;;;;;1.58;0.52;;;;;;;5.83;87.20;99563.00;5048616;28;20045;-77
2023/03/05 02:32:04;;;;;;;0.98;0.38;;;;;;;5.80;86.89;99570.63;5048090;28;20052;-77
2023/03/05 02:34:32;;;;;;;0.57;0.40;;;;;;;5.78;88.40;99575.69;5051868;28;20049;-77
2023/03/05 02:37:03;;;;;;;1.08;0.55;;;;;;;5.79;87.23;99580.00;5049796;28;20095;-77
2023/03/05 02:39:32;;;;;;;1.05;0.80;;;;;;;5.75;87.58;99592.69;5045428;28;20045;-77
2023/03/05 02:42:00;;;;;;;1.38;0.47;;;;;;;5.66;88.43;99581.34;5049108;28;20098;-77
2023/03/05 02:44:29;;;;;;;0.47;0.30;;;;;;;5.63;89.30;99598.31;5045455;28;20102;-77
2023/03/05 02:46:57;;;;;;;2.58;1.17;;;;;;;5.63;90.21;99593.19;5047431;28;20053;-75
2023/03/05 02:49:26;;;;;;;0.90;0.22;;;;;;;5.56;89.90;99598.97;5050817;28;20059;-79
2023/03/05 02:51:55;;;;;;;0.80;0.57;;;;;;;5.38;89.71;99604.38;5043269;28;20045;-80
2023/03/05 02:54:25;;;;;;;0.70;0.38;;;;;;;5.22;91.58;99611.63;5053935;28;20536;-78
2023/03/05 02:56:54;;;;;;;0.30;0.30;;;;;;;5.18;92.50;99606.34;5051128;28;20048;-77
2023/03/05 02:59:22;;;;;;;0.63;0.38;;;;;;;5.08;92.79;99604.28;5049348;28;20040;-78
2023/03/05 03:01:51;;;;;;;0.73;0.30;;;;;;;5.03;92.72;99609.25;5044857;28;20078;-79
2023/03/05 03:04:19;;;;;;;1.30;0.40;;;;;;;4.85;90.96;99618.88;5050344;28;20129;-79
2023/03/05 03:06:48;;;;;;;0.30;0.20;;;;;;;4.80;91.32;99618.72;5045671;28;20049;-77
2023/03/05 03:09:16;;;;;;;2.47;0.60;;;;;;;4.66;92.40;99613.13;5049705;28;20528;-83
2023/03/05 03:11:46;;;;;;;2.05;0.50;;;;;;;4.66;93.65;99614.81;5051031;28;20061;-76
2023/03/05 03:14:15;;;;;;;3.67;0.55;;;;;;;4.60;94.10;99618.03;5046479;28;20049;-77
2023/03/05 03:16:43;;;;;;;0.73;0.50;;;;;;;4.64;96.52;99614.75;5050147;27;20091;-76
2023/03/05 03:19:12;;;;;;;0.95;0.80;;;;;;;4.61;96.58;99625.78;5047940;28;20107;-75
2023/03/05 03:21:41;;;;;;;1.08;0.70;;;;;;;4.59;94.84;99632.53;5055321;28;20106;-73
2023/03/05 03:24:09;;;;;;;2.47;0.52;;;;;;;4.60;94.56;99633.41;5046978;28;20056;-76
2023/03/05 03:26:38;;;;;;;1.02;0.47;;;;;;;4.56;95.43;99640.13;5046079;28;20490;-76
2023/03/05 03:29:08;;;;;;;0.98;0.70;;;;;;;4.56;95.61;99645.25;5046098;28;20561;-76
2023/03/05 03:31:39;;;;;;;1.45;0.68;;;;;;;4.54;96.47;99648.56;5045135;28;20713;-79
2023/03/05 03:34:08;;;;;;;3.78;0.77;;;;;;;4.50;98.43;99659.53;5042641;28;20098;-74
2023/03/05 03:36:36;;;;;;;1.48;0.60;;;;;;;4.41;98.35;99654.94;5044789;28;20106;-75
2023/03/05 03:39:05;;;;;;;1.70;0.45;;;;;;;4.38;100.00;99648.00;5049532;28;20045;-76
2023/03/05 03:41:34;;;;;;;0.68;0.32;;;;;;;4.29;100.00;99654.50;5054126;28;20148;-77
2023/03/05 03:44:05;;;;;;;2.67;0.70;;;;;;;4.26;100.00;99645.03;5048211;28;20087;-78
2023/03/05 03:46:36;;;;;;;1.25;0.50;;;;;;;4.25;100.00;99652.63;5050057;28;20087;-80
2023/03/05 03:49:05;;;;;;;1.50;0.60;;;;;;;4.27;100.00;99651.00;5043972;28;20071;-76
2023/03/05 03:51:34;;;;;;;1.80;0.85;;;;;;;4.21;100.00;99651.63;5051248;28;20049;-77
2023/03/05 03:54:02;;;;;;;0.32;0.22;;;;;;;4.18;100.00;99652.41;5049068;28;20071;-78
2023/03/05 03:56:31;;;;;;;3.28;0.70;;;;;;;4.11;100.00;99659.81;5047731;28;20057;-78
2023/03/05 03:58:59;;;;;;;0.52;0.35;;;;;;;4.08;100.00;99652.00;5043840;28;20491;-76
2023/03/05 04:01:28;;;;;;;3.38;0.60;;;;;;;4.07;100.00;99663.06;5045305;28;20111;-76
2023/03/05 04:03:58;;;;;;;2.45;0.43;;;;;;;4.07;100.00;99665.63;5049536;28;20045;-76
2023/03/05 04:06:26;;;;;;;2.20;0.47;;;;;;;4.07;100.00;99663.06;5050058;28;20053;-76
2023/03/05 04:08:55;;;;;;;0.82;0.55;;;;;;;4.05;100.00;99664.69;5041534;28;20056;-76
2023/03/05 04:11:24;;;;;;;1.08;0.40;;;;;;;4.07;100.00;99673.28;5042692;28;20060;-76
2023/03/05 04:13:52;;;;;;;1.30;0.38;;;;;;;4.04;100.00;99670.63;5045322;28;20049;-77
2023/03/05 04:16:36;;;;;;;0.77;0.55;;;;;;;3.98;100.00;99679.78;5043453;27;20049;-76
2023/03/05 04:19:13;;;;;;;1.60;0.90;;;;;;;3.95;100.00;99678.81;5044639;28;20042;-76
2023/03/05 04:21:42;;;;;;;1.63;0.65;;;;;;;3.92;100.00;99679.56;5046885;28;20052;-76
2023/03/05 04:24:10;;;;;;;4.05;1.33;;;;;;;3.94;100.00;99677.94;5045768;28;20041;-76
2023/03/05 04:26:39;;;;;;;0.68;0.47;;;;;;;3.97;100.00;99679.75;5050350;28;20053;-76
2023/03/05 04:29:08;;;;;;;1.60;0.60;;;;;;;3.96;100.00;99676.31;5046530;28;20048;-80
2023/03/05 04:31:36;;;;;;;2.28;1.10;;;;;;;4.00;100.00;99684.97;5048458;28;20045;-80
2023/03/05 04:34:05;;;;;;;0.90;0.50;;;;;;;4.03;100.00;99676.53;5049667;28;20045;-79
2023/03/05 04:36:35;;;;;;;0.65;0.38;;;;;;;4.05;100.00;99682.59;5043291;28;20053;-81
2023/03/05 04:39:05;;;;;;;0.60;0.40;;;;;;;4.09;100.00;99681.91;5044952;28;20072;-80
2023/03/05 04:41:33;;;;;;;1.38;0.70;;;;;;;4.15;100.00;99689.81;5043523;28;20056;-77
2023/03/05 04:44:02;;;;;;;1.73;0.47;;;;;;;4.20;100.00;99690.88;5051461;28;20045;-79
2023/03/05 04:46:31;;;;;;;1.63;0.47;;;;;;;4.25;100.00;99689.34;5050851;28;20056;-78
2023/03/05 04:48:59;;;;;;;0.80;0.52;;;;;;;4.32;100.00;99691.31;5047217;28;20572;-77
2023/03/05 04:51:28;;;;;;;1.67;1.00;;;;;;;4.37;100.00;99692.34;5042184;28;20056;-78
2023/03/05 04:53:58;;;;;;;0.80;0.40;;;;;;;4.43;100.00;99691.72;5041287;28;20056;-80
2023/03/05 04:56:27;;;;;;;1.60;0.43;;;;;;;4.48;100.00;99697.00;5047243;28;20053;-89
2023/03/05 04:58:55;;;;;;;1.95;0.77;;;;;;;4.49;100.00;99691.06;5042013;28;20049;-85
2023/03/05 05:01:24;;;;;;;1.60;0.70;;;;;;;4.49;100.00;99699.66;5044334;28;20082;-85
2023/03/05 05:03:52;;;;;;;0.93;0.60;;;;;;;4.53;100.00;99695.50;5042898;28;20061;-81
2023/03/05 05:06:21;;;;;;;1.98;0.75;;;;;;;4.57;100.00;99708.47;5041605;28;20037;-86
2023/03/05 05:08:50;;;;;;;1.00;0.80;;;;;;;4.53;100.00;99704.03;5049540;28;20048;-84
2023/03/05 05:11:20;;;;;;;2.65;0.55;;;;;;;4.55;100.00;99707.53;5045286;28;20106;-88
2023/03/05 05:13:49;;;;;;;1.10;0.70;;;;;;;4.54;100.00;99712.63;5050771;28;20056;-85
2023/03/05 05:16:17;;;;;;;4.13;0.95;;;;;;;4.46;100.00;99706.31;5044442;28;20068;-89
2023/03/05 05:18:46;;;;;;;0.82;0.65;;;;;;;4.46;100.00;99719.13;5052179;27;20509;-85
2023/03/05 05:21:17;;;;;;;2.45;0.60;;;;;;;4.44;100.00;99720.75;5052350;28;20048;-86
2023/03/05 05:23:46;;;;;;;2.55;0.60;;;;;;;4.41;100.00;99732.63;5052950;28;20045;-83
2023/03/05 05:26:14;;;;;;;1.60;0.80;;;;;;;4.39;100.00;99739.38;5049491;28;20037;-83
2023/03/05 05:28:45;;;;;;;1.60;0.60;;;;;;;4.40;100.00;99741.16;5047733;28;20049;-82
2023/03/05 05:31:15;;;;;;;0.47;0.38;;;;;;;4.43;100.00;99744.66;5052992;28;20044;-83
2023/03/05 05:33:43;;;;;;;2.28;0.75;;;;;;;4.45;100.00;99737.91;5053862;28;20078;-86
2023/03/05 05:36:14;;;;;;;2.40;0.65;;;;;;;4.45;100.00;99749.00;5059417;28;20044;-87
2023/03/05 05:38:43;;;;;;;1.55;0.55;;;;;;;4.43;100.00;99745.50;5056575;28;20659;-82
2023/03/05 05:41:15;;;;;;;0.10;0.10;;;;;;;4.39;100.00;99754.75;5053000;28;20049;-82
2023/03/05 05:43:45;;;;;;;0.68;0.50;;;;;;;4.38;100.00;99758.16;5051251;28;20099;-83
2023/03/05 05:46:15;;;;;;;1.48;0.70;;;;;;;4.40;100.00;99756.53;5048129;28;20049;-87
2023/03/05 05:48:44;;;;;;;0.45;0.30;;;;;;;4.40;100.00;99761.63;5052125;28;20045;-83
2023/03/05 05:51:15;;;;;;;0.63;0.40;;;;;;;4.38;100.00;99758.16;5050199;28;20052;-81
2023/03/05 05:53:45;;;;;;;2.58;0.50;;;;;;;4.36;100.00;99761.47;5050437;28;20106;-87
2023/03/05 05:56:15;;;;;;;2.55;0.50;;;;;;;4.35;100.00;99762.25;5052231;28;20056;-82
2023/03/05 05:58:46;;;;;;;0.70;0.45;;;;;;;4.35;100.00;99768.28;5049649;28;20135;-83
2023/03/05 06:01:17;;;;;;;0.65;0.45;;;;;;;4.29;100.00;99762.91;5048241;28;20095;-75
2023/03/05 06:03:46;;;;;;;1.73;0.38;;;;;;;4.28;100.00;99770.53;5048741;28;20072;-84
2023/03/05 06:06:16;;;;;;;0.82;0.60;;;;;;;4.32;100.00;99773.25;5056182;28;20062;-89
2023/03/05 06:08:45;;;;;;;0.90;0.50;;;;;;;4.31;100.00;99770.66;5045057;28;20439;-76
2023/03/05 06:11:20;;;;;;;1.25;0.35;;;;;;;4.29;100.00;99773.16;5047393;28;20045;-88
2023/03/05 06:13:50;;;;;;;1.45;0.50;;;;;;;4.30;100.00;99764.66;5046751;28;20502;-85
2023/03/05 06:16:20;;;;;;;0.95;0.40;;;;;;;4.30;100.00;99769.78;5049206;28;20048;-84
2023/03/05 06:18:49;;;;;;;1.13;0.50;;;;;;;4.30;100.00;99772.31;5048725;27;20448;-87
2023/03/05 06:21:20;;;;;;;0.20;0.15;;;;;;;4.26;100.00;99773.06;5053402;28;20095;-87
2023/03/05 06:23:49;;;;;;;0.15;0.15;;;;;;;4.20;100.00;99783.03;5046399;28;20098;-86
2023/03/05 06:26:20;;;;;;;0.52;0.45;;;;;;;4.18;100.00;99777.84;5046262;28;20048;-83
2023/03/05 06:28:50;;;;;;;0.52;0.28;;;;;;;4.18;100.00;99784.66;5045919;28;20052;-84
2023/03/05 06:31:20;;;;;;;0.30;0.22;;;;;;;4.15;100.00;99779.44;5055261;28;20066;-84
2023/03/05 06:33:49;;;;;;;0.80;0.50;;;;;;;4.13;100.00;99774.25;5046823;28;20077;-79
2023/03/05 06:36:20;;;;;;;0.20;0.10;;;;;;;4.23;100.00;99787.41;5053565;28;20040;-78
2023/03/05 06:38:48;;;;;;;1.95;0.80;;;;;;;4.23;100.00;99785.72;5045854;28;20038;-78
2023/03/05 06:41:19;;;;;;;0.85;0.43;;;;;;;4.22;100.00;99786.53;5044876;28;20103;-78
2023/03/05 06:43:48;;;;;;;1.08;0.70;;;;;;;4.15;100.00;99784.56;5047469;28;20053;-79
2023/03/05 06:46:21;;;;;;;0.63;0.32;;;;;;;4.13;100.00;99792.16;5066033;28;20090;-78
2023/03/05 06:48:51;;;;;;;2.33;0.40;;;;;;;4.13;100.00;99797.28;5055311;28;20621;-79
2023/03/05 06:51:21;;;;;;;0.75;0.40;;;;;;;4.08;100.00;99798.78;5046862;28;20464;-79
2023/03/05 06:53:50;;;;;;;2.10;0.30;;;;;;;4.03;100.00;99802.84;5046220;28;20096;-80
2023/03/05 06:56:19;;;;;;;0.45;0.20;;;;;;;3.98;100.00;99812.88;5045872;28;20616;-81
2023/03/05 06:58:49;;;;;;;0.28;0.10;;;;;;;3.97;100.00;99803.47;5054859;28;20049;-81
2023/03/05 07:01:22;;;;;;;0.77;0.30;;;;;;;4.01;100.00;99803.59;5049590;28;20121;-81
2023/03/05 07:03:50;;;;;;;;;;;;;;;3.96;100.00;99818.75;5048425;28;20049;-81
2023/03/05 07:06:19;;;;;;;0.20;0.10;;;;;;;3.97;100.00;99811.16;5048052;28;19929;-81
2023/03/05 07:08:48;;;;;;;0.52;0.22;;;;;;;3.94;100.00;99811.03;5049077;28;20045;-83
2023/03/05 07:11:19;;;;;;;1.98;0.57;;;;;;;3.92;100.00;99804.97;5046720;28;20060;-84
2023/03/05 07:13:48;;;;;;;0.10;0.10;;;;;;;3.89;100.00;99807.38;5044084;28;20106;-82
2023/03/05 07:16:20;;;;;;;0.32;0.10;;;;;;;3.78;100.00;99819.78;5052707;28;20106;-78
2023/03/05 07:18:49;;;;;;;0.17;0.15;;;;;;;3.79;100.00;99812.97;5031598;28;20068;-75
2023/03/05 07:21:20;;;;;;;0.75;0.20;;;;;;;3.82;100.00;99818.19;5026872;28;20486;-74
2023/03/05 07:23:48;;;;;;;0.30;0.30;;;;;;;3.84;100.00;99820.81;5030481;28;20053;-75
2023/03/05 07:26:18;;;;;;;0.75;0.25;;;;;;;3.84;100.00;99823.38;5027729;28;20495;-74
2023/03/05 07:28:46;;;;;;;0.70;0.38;;;;;;;3.82;100.00;99815.63;5028481;28;20054;-74
2023/03/05 07:31:17;;;;;;;1.38;0.30;;;;;;;3.77;100.00;99820.56;5030043;28;20069;-74
2023/03/05 07:33:48;;;;;;;0.45;0.40;;;;;;;3.74;100.00;99815.31;5024573;28;20050;-74
2023/03/05 07:36:17;;;;;;;0.30;0.05;;;;;;;3.71;100.00;99804.97;5035125;28;20125;-74
2023/03/05 07:38:46;;;;;;;0.22;0.15;;;;;;;3.65;100.00;99806.41;5023745;28;20687;-74
2023/03/05 07:41:18;;;;;;;0.50;0.50;;;;;;;3.66;100.00;99803.03;5027450;28;20561;-74
2023/03/05 07:43:47;;;;;;;1.08;0.17;;;;;;;3.63;100.00;99814.00;5030197;28;20502;-75
2023/03/05 07:46:18;;;;;;;2.42;0.20;;;;;;;3.59;100.00;99817.22;5033110;28;20054;-74
2023/03/05 07:48:48;;;;;;;1.15;0.75;;;;;;;3.58;100.00;99815.50;5026995;28;20072;-74
2023/03/05 07:51:18;;;;;;;0.10;0.10;;;;;;;3.57;100.00;99813.72;5027552;28;20585;-74
2023/03/05 07:53:48;;;;;;;0.10;0.10;;;;;;;3.56;100.00;99812.88;5027357;28;20045;-74
2023/03/05 07:56:22;;;;;;;0.65;0.38;;;;;;;3.53;100.00;99822.97;5029391;28;20045;-75
2023/03/05 07:58:51;;;;;;;0.30;0.25;;;;;;;3.53;100.00;99837.47;5015844;28;20048;-74
2023/03/05 08:01:20;;;;;;;0.98;0.40;;;;;;;3.50;100.00;99838.16;5020300;28;20155;-75
2023/03/05 08:03:50;;;;;;;1.38;0.55;;;;;;;3.43;100.00;99838.72;5028447;28;20041;-74
2023/03/05 08:06:18;;;;;;;1.23;0.30;;;;;;;3.41;100.00;99848.00;5023404;28;20123;-74
2023/03/05 08:08:47;;;;;;;3.17;0.57;;;;;;;3.39;100.00;99844.53;5028301;28;20050;-74
2023/03/05 08:11:16;;;;;;;0.68;0.17;;;;;;;3.39;100.00;99833.41;5034147;28;20076;-74
2023/03/05 08:13:46;;;;;;;0.20;0.20;;;;;;;3.40;100.00;99836.03;5024963;28;20115;-74
2023/03/05 08:16:16;;;;;;;0.35;0.35;;;;;;;3.44;100.00;99839.63;5031933;28;20057;-75
2023/03/05 08:18:45;;;;;;;0.20;0.20;;;;;;;3.46;100.00;99837.97;5044099;28;20122;-74
2023/03/05 08:21:20;;;;;;;0.13;0.13;;;;;;;3.46;100.00;99831.19;5051229;28;20683;-74
2023/03/05 08:23:49;;;;;;;0.30;0.20;;;;;;;3.49;100.00;99836.44;5046169;28;20910;-73
2023/03/05 08:26:21;;;;;;;0.38;0.28;;;;;;;3.51;100.00;99829.72;5052468;28;20052;-74
2023/03/05 08:28:49;;;;;;;0.20;0.20;;;;;;;3.52;100.00;99831.44;5048047;28;20057;-74
2023/03/05 08:31:20;;;;;;;3.03;0.30;;;;;;;3.53;100.00;99822.13;5051449;28;20044;-74
2023/03/05 08:33:49;;;;;;;1.45;0.35;;;;;;;3.52;100.00;99818.66;5048944;28;20068;-73
2023/03/05 08:36:19;;;;;;;1.10;0.30;;;;;;;3.51;100.00;99822.03;5045396;28;20094;-73
2023/03/05 08:38:47;;;;;;;0.10;0.10;;;;;;;3.50;100.00;99822.81;5047353;28;20049;-74
2023/03/05 08:41:17;;;;;;;0.40;0.35;;;;;;;3.43;100.00;99813.16;5045017;28;20071;-73
2023/03/05 08:43:45;;;;;;;0.70;0.25;;;;;;;3.47;100.00;99826.97;5050129;28;20486;-73
2023/03/05 08:46:15;;;;;;;2.35;0.20;;;;;;;3.46;100.00;99820.06;5052487;28;20053;-73
2023/03/05 08:48:44;;;;;;;0.55;0.20;;;;;;;3.45;100.00;99837.09;5047057;28;20049;-74
2023/03/05 08:51:13;;;;;;;0.70;0.57;;;;;;;3.41;100.00;99837.78;5056170;28;20545;-73
2023/03/05 08:53:44;;;;;;;2.47;0.88;;;;;;;3.40;100.00;99846.28;5060414;28;20117;-73
2023/03/05 08:56:13;;;;;;;1.13;0.45;;;;;;;3.38;100.00;99842.78;5051918;28;20045;-73
2023/03/05 08:58:42;;;;;;;0.50;0.32;;;;;;;3.34;100.00;99839.22;5053662;28;20041;-74
2023/03/05 09:01:11;;;;;;;0.43;0.40;;;;;;;3.32;100.00;99843.41;5049679;28;20042;-73
2023/03/05 09:03:40;;;;;;;1.02;0.57;;;;;;;3.29;100.00;99833.00;5047826;28;20279;-73
2023/03/05 09:06:11;;;;;;;1.92;0.57;;;;;;;3.29;100.00;99834.69;5051683;28;20049;-73
2023/03/05 09:08:40;;;;;;;0.40;0.32;;;;;;;3.30;100.00;99836.47;5053156;28;20049;-73
2023/03/05 09:11:12;;;;;;;0.80;0.35;;;;;;;3.30;100.00;99841.56;5050457;28;20045;-73
2023/03/05 09:13:41;;;;;;;1.08;0.40;;;;;;;3.32;100.00;99842.50;5056419;28;20049;-73
2023/03/05 09:16:12;;;;;;;4.47;0.38;;;;;;;3.34;100.00;99840.88;5038086;28;20442;-73
2023/03/05 09:18:41;;;;;;;0.60;0.30;;;;;;;3.35;100.00;99837.53;5052312;28;20053;-73
2023/03/05 09:21:11;;;;;;;0.30;0.20;;;;;;;3.38;100.00;99832.53;5053088;28;20045;-73
2023/03/05 09:23:40;;;;;;;0.40;0.40;;;;;;;3.40;100.00;99825.81;5051261;28;20051;-74
2023/03/05 09:26:12;;;;;;;1.05;0.40;;;;;;;3.41;100.00;99821.56;5051710;28;20041;-73
2023/03/05 09:28:41;;;;;;;0.90;0.40;;;;;;;3.43;100.00;99827.63;5046149;28;20067;-73
2023/03/05 09:31:10;;;;;;;1.77;0.52;;;;;;;3.42;100.00;99824.19;5049028;28;20114;-74
2023/03/05 09:33:39;;;;;;;1.92;0.40;;;;;;;3.41;100.00;99822.44;5048982;28;20139;-73
2023/03/05 09:36:19;;;;;;;3.05;0.60;;;;;;;3.39;100.00;99818.06;5049294;28;20485;-73
2023/03/05 09:38:47;;;;;;;1.70;0.90;;;;;;;3.38;100.00;99817.19;5054789;28;20052;-74
2023/03/05 09:41:26;;;;;;;1.10;0.65;;;;;;;3.35;100.00;99810.28;5046205;28;20045;-73
2023/03/05 09:44:03;;;;;;;2.92;1.00;;;;;;;3.34;100.00;99815.31;5051504;28;20045;-75
2023/03/05 09:46:45;;;;;;;3.15;1.10;;;;;;;3.32;100.00;99807.59;5057872;28;20057;-73
2023/03/05 09:49:21;;;;;;;1.70;1.08;;;;;;;3.30;100.00;99808.34;5051561;28;20045;-72
2023/03/05 09:51:55;;;;;;;1.95;0.80;;;;;;;3.30;100.00;99798.13;5049142;28;20052;-73
2023/03/05 09:54:29;;;;;;;0.88;0.60;;;;;;;3.27;100.00;99801.38;5047683;28;20040;-73
2023/03/05 09:57:04;;;;;;;2.40;0.90;;;;;;;3.24;100.00;99788.47;5045242;28;20045;-72
2023/03/05 09:59:39;;;;;;;0.95;0.77;;;;;;;3.21;100.00;99782.34;5046733;28;20081;-73
2023/03/05 10:02:18;;;;;;;1.15;0.70;;;;;;;3.18;100.00;99775.44;5046806;28;20056;-74
2023/03/05 10:04:53;;;;;;;1.30;1.00;;;;;;;3.14;100.00;99773.56;5049963;28;20049;-74
2023/03/05 10:07:26;;;;;;;2.08;0.63;;;;;;;3.12;100.00;99773.50;5053547;28;20864;-73
2023/03/05 10:09:58;;;;;;;0.60;0.40;;;;;;;3.10;100.00;99766.56;5050307;28;20049;-73
2023/03/05 10:12:41;;;;;;;3.03;0.75;;;;;;;3.11;100.00;99771.72;5056402;28;20044;-73
2023/03/05 10:15:14;;;;;;;0.90;0.70;;;;;;;3.09;100.00;99767.34;5047902;28;20045;-73
2023/03/05 10:18:21;;;;;;;1.65;1.02;;;;;;;3.05;100.00;99774.03;5046091;27;20061;-73
2023/03/05 10:21:02;;;;;;;0.98;0.60;;;;;;;3.01;100.00;99772.16;5034495;28;20049;-73
2023/03/05 10:23:38;;;;;;;0.80;0.50;;;;;;;2.99;100.00;99778.88;5035889;28;20787;-74
2023/03/05 10:26:21;;;;;;;5.32;1.63;;;;;;;2.97;100.00;99777.94;5030770;28;20053;-73
2023/03/05 10:29:03;;;;;;;3.38;0.70;;;;;;;2.93;100.00;99776.03;5029105;28;20045;-73
2023/03/05 10:31:46;;;;;;;0.75;0.52;;;;;;;2.92;100.00;99774.31;5029913;28;20571;-73
2023/03/05 10:34:49;;;;;;;0.70;0.50;;;;;;;2.90;100.00;99781.03;5027603;28;20049;-73
2023/03/05 10:37:33;;;;;;;2.90;1.45;;;;;;;2.89;100.00;99774.19;5025812;28;20052;-73
2023/03/05 10:40:16;;;;;;;1.70;0.82;;;;;;;2.86;100.00;99779.13;5024265;28;20480;-74
2023/03/05 10:42:53;;;;;;;2.55;1.00;;;;;;;2.83;100.00;99768.78;5035400;28;20061;-73
2023/03/05 10:45:27;;;;;;;2.10;0.85;;;;;;;2.81;100.00;99763.59;5040990;28;20053;-73
2023/03/05 10:48:00;;;;;;;0.88;0.77;;;;;;;2.78;100.00;99760.91;5031283;28;20147;-73
2023/03/05 10:50:32;;;;;;;1.42;0.95;;;;;;;2.77;100.00;99763.38;5031158;28;20042;-73
2023/03/05 10:53:14;;;;;;;0.77;0.77;;;;;;;2.73;100.00;99758.16;5033052;28;20576;-73
2023/03/05 10:55:43;;;;;;;3.50;1.13;;;;;;;2.70;100.00;99763.13;5033493;28;20045;-73
2023/03/05 10:58:13;;;;;;;1.25;0.77;;;;;;;2.69;100.00;99766.47;5029367;28;20119;-73
2023/03/05 11:01:00;;;;;;;1.60;0.50;;;;;;;2.68;100.00;99757.09;5032200;28;20934;-73
2023/03/05 11:03:48;;;;;;;2.17;0.75;;;;;;;2.67;100.00;99765.53;5029437;28;20095;-73
2023/03/05 11:06:27;;;;;;;0.88;0.75;;;;;;;2.67;100.00;99762.97;5027783;28;20052;-73
2023/03/05 11:08:55;;;;;;;0.47;0.30;;;;;;;2.67;100.00;99762.13;5026281;28;20057;-73
2023/03/05 11:11:24;;;;;;;0.57;0.40;;;;;;;2.66;100.00;99756.13;5032869;28;20049;-74
2023/03/05 11:13:58;;;;;;;0.38;0.20;;;;;;;2.65;100.00;99751.81;5031553;28;20048;-74
2023/03/05 11:16:30;;;;;;;0.75;0.55;;;;;;;2.67;100.00;99750.22;5029529;28;20068;-74
2023/03/05 11:19:21;;;;;;;0.85;0.45;;;;;;;2.69;100.00;99752.84;5044889;27;20063;-74
2023/03/05 11:22:16;;;;;;;0.90;0.45;;;;;;;2.67;100.00;99750.22;5047848;28;20490;-74
2023/03/05 11:24:46;;;;;;;0.30;0.30;;;;;;;2.58;100.00;99736.16;5051341;28;20187;-74
2023/03/05 11:27:26;;;;;;;2.10;0.50;;;;;;;2.60;100.00;99743.09;5048819;28;20128;-73
2023/03/05 11:29:55;;;;;;;2.60;0.65;;;;;;;2.59;100.00;99743.91;5047426;28;20049;-73
2023/03/05 11:32:31;;;;;;;0.80;0.70;;;;;;;2.59;100.00;99738.78;5048412;28;20569;-73
2023/03/05 11:35:00;;;;;;;0.90;0.40;;;;;;;2.57;100.00;99744.66;5051513;28;20049;-73
2023/03/05 11:37:30;;;;;;;0.30;0.30;;;;;;;2.58;100.00;99738.72;5050657;28;20045;-72
2023/03/05 11:40:20;;;;;;;0.75;0.55;;;;;;;2.56;100.00;99738.63;5050179;28;20041;-72
2023/03/05 11:42:56;;;;;;;1.27;0.63;;;;;;;2.53;100.00;99746.16;5044334;28;20597;-72
2023/03/05 11:45:26;;;;;;;3.33;0.73;;;;;;;2.51;100.00;99730.78;5048101;28;20912;-72
2023/03/05 11:47:59;;;;;;;1.95;0.73;;;;;;;2.50;100.00;99729.03;5052697;28;20049;-72
2023/03/05 11:50:30;;;;;;;1.25;0.75;;;;;;;2.51;100.00;99719.69;5048299;28;20056;-72
2023/03/05 11:53:03;;;;;;;1.92;1.08;;;;;;;2.52;100.00;99718.91;5047669;28;20057;-72
2023/03/05 11:55:37;;;;;;;1.45;0.70;;;;;;;2.53;100.00;99712.97;5044908;28;20046;-74